createdAt,value
2023-03-16T00:02:22.174Z,7.30
2023-03-16T00:04:50.330Z,7.50
2023-03-16T00:07:18.882Z,7.40
2023-03-16T00:09:46.801Z,7.40
2023-03-16T00:12:17.129Z,7.40
2023-03-16T00:14:46.944Z,7.40
2023-03-16T00:17:21.018Z,7.40
2023-03-16T00:19:57.334Z,7.50
2023-03-16T00:22:29.950Z,7.20
2023-03-16T00:27:26.705Z,7.50
2023-03-16T00:29:57.608Z,7.60
2023-03-16T00:34:56.589Z,7.80
2023-03-16T00:37:26.166Z,7.60
2023-03-16T00:39:57.386Z,7.60
2023-03-16T00:42:27.760Z,7.80
2023-03-16T00:44:57.160Z,7.60
2023-03-16T00:47:30.704Z,7.70
2023-03-16T00:49:58.950Z,7.60
2023-03-16T00:52:27.641Z,7.80
2023-03-16T00:54:55.974Z,7.70
2023-03-16T00:57:25.916Z,7.70
2023-03-16T01:04:54.658Z,7.80
2023-03-16T01:07:22.968Z,7.80
2023-03-16T01:12:20.040Z,7.80
2023-03-16T01:17:17.446Z,7.90
2023-03-16T01:19:45.869Z,7.80
2023-03-16T01:24:42.690Z,8.00
2023-03-16T01:29:38.900Z,7.90
2023-03-16T01:32:07.435Z,8.00
2023-03-16T01:34:35.248Z,8.10
2023-03-16T01:42:12.338Z,8.10
2023-03-16T01:44:52.927Z,8.10
2023-03-16T01:47:22.349Z,8.20
2023-03-16T01:49:55.011Z,8.10
2023-03-16T01:52:33.345Z,8.20
2023-03-16T01:55:05.891Z,8.20
2023-03-16T02:00:23.503Z,8.40
2023-03-16T02:03:16.832Z,8.40
2023-03-16T02:06:03.293Z,8.40
2023-03-16T02:08:33.437Z,8.50
2023-03-16T02:11:01.247Z,8.50
2023-03-16T02:13:49.804Z,8.40
2023-03-16T02:16:19.610Z,8.50
2023-03-16T02:18:51.603Z,8.50
2023-03-16T02:23:53.500Z,8.60
2023-03-16T02:26:24.060Z,8.60
2023-03-16T02:29:39.777Z,8.50
2023-03-16T02:32:08.792Z,8.50
2023-03-16T02:34:36.518Z,8.80
2023-03-16T02:37:05.718Z,8.50
2023-03-16T02:42:02.924Z,8.80
2023-03-16T02:47:22.171Z,8.40
2023-03-16T02:57:14.212Z,8.60
2023-03-16T03:09:53.741Z,8.80
2023-03-16T03:14:49.998Z,9.20
2023-03-16T03:17:20.513Z,9.00
2023-03-16T03:19:48.469Z,8.80
2023-03-16T03:24:46.381Z,9.00
2023-03-16T03:27:14.895Z,9.10
2023-03-16T03:29:44.654Z,9.00
2023-03-16T03:32:12.535Z,9.00
2023-03-16T03:34:40.198Z,9.10
2023-03-16T03:39:36.724Z,9.10
2023-03-16T03:47:05.931Z,9.50
2023-03-16T03:52:04.715Z,9.10
2023-03-16T03:54:32.414Z,9.00
2023-03-16T03:57:05.075Z,9.10
2023-03-16T03:59:33.057Z,8.90
2023-03-16T04:02:11.979Z,9.20
2023-03-16T04:07:16.350Z,9.10
2023-03-16T04:15:13.099Z,9.20
2023-03-16T04:25:27.600Z,9.20
2023-03-16T04:33:04.448Z,9.20
2023-03-16T04:35:32.229Z,9.20
2023-03-16T04:40:37.442Z,9.40
2023-03-16T04:43:13.620Z,9.10
2023-03-16T04:45:42.250Z,9.40
2023-03-16T04:48:10.494Z,9.30
2023-03-16T04:53:07.023Z,9.40
2023-03-16T05:00:35.247Z,9.30
2023-03-16T05:03:10.263Z,9.40
2023-03-16T05:05:39.035Z,9.20
2023-03-16T05:08:07.227Z,9.30
2023-03-16T05:10:37.000Z,9.00
2023-03-16T05:15:34.595Z,9.40
2023-03-16T05:18:16.410Z,9.30
2023-03-16T05:20:44.582Z,9.30
2023-03-16T05:23:12.564Z,9.30
2023-03-16T05:25:48.172Z,9.30
2023-03-16T05:30:52.183Z,9.40
2023-03-16T05:36:00.277Z,9.70
2023-03-16T05:38:28.139Z,9.20
2023-03-16T05:41:02.202Z,9.20
2023-03-16T05:43:45.393Z,9.20
2023-03-16T05:46:14.507Z,9.40
2023-03-16T05:53:42.929Z,9.00
2023-03-16T05:56:18.246Z,9.10
2023-03-16T06:03:44.716Z,9.10
2023-03-16T06:06:19.766Z,9.10
2023-03-16T06:09:03.207Z,9.00
2023-03-16T06:11:32.982Z,9.30
2023-03-16T06:14:01.360Z,9.20
2023-03-16T06:16:29.370Z,9.10
2023-03-16T06:18:59.557Z,9.20
2023-03-16T06:24:01.693Z,9.10
2023-03-16T06:26:29.842Z,9.20
2023-03-16T06:38:54.293Z,8.80
2023-03-16T06:41:45.051Z,9.20
2023-03-16T06:44:15.244Z,9.30
2023-03-16T06:46:53.370Z,9.60
2023-03-16T06:49:21.295Z,9.20
2023-03-16T06:51:49.499Z,9.20
2023-03-16T06:56:46.396Z,9.20
2023-03-16T06:59:14.213Z,9.20
2023-03-16T07:06:38.613Z,9.20
2023-03-16T07:09:06.861Z,9.20
2023-03-16T07:16:33.344Z,9.30
2023-03-16T07:21:39.240Z,9.20
2023-03-16T07:24:10.997Z,9.20
2023-03-16T07:26:39.631Z,9.30
2023-03-16T07:29:09.715Z,9.30
2023-03-16T07:31:38.197Z,9.10
2023-03-16T07:34:11.715Z,9.20
2023-03-16T07:39:14.406Z,9.30
2023-03-16T07:41:42.968Z,9.20
2023-03-16T07:44:31.636Z,9.30
2023-03-16T07:52:00.227Z,9.30
2023-03-16T07:57:06.455Z,9.30
2023-03-16T07:59:39.506Z,9.30
2023-03-16T08:02:16.107Z,9.40
2023-03-16T08:04:44.695Z,9.40
2023-03-16T08:07:15.672Z,9.40
2023-03-16T08:15:00.301Z,9.60
2023-03-16T08:17:31.557Z,9.70
2023-03-16T08:20:01.383Z,9.60
2023-03-16T08:24:58.592Z,9.50
2023-03-16T08:27:29.286Z,9.60
2023-03-16T08:30:05.053Z,9.70
2023-03-16T08:32:34.777Z,9.60
2023-03-16T08:47:42.714Z,9.70
2023-03-16T08:50:15.666Z,9.80
2023-03-16T08:52:43.423Z,9.80
2023-03-16T08:55:11.549Z,9.80
2023-03-16T08:57:39.419Z,10.00
2023-03-16T09:00:14.517Z,9.70
2023-03-16T09:02:42.897Z,9.80
2023-03-16T09:05:13.080Z,9.60
2023-03-16T09:07:42.670Z,9.70
2023-03-16T09:10:14.493Z,9.90
2023-03-16T09:12:43.560Z,9.80
2023-03-16T09:15:13.837Z,9.90
2023-03-16T09:20:21.963Z,10.00
2023-03-16T09:22:58.906Z,9.90
2023-03-16T09:27:54.708Z,10.10
2023-03-16T09:32:50.866Z,10.20
2023-03-16T09:35:19.564Z,10.20
2023-03-16T09:38:04.794Z,10.20
2023-03-16T09:40:36.110Z,10.40
2023-03-16T09:43:23.901Z,10.40
2023-03-16T09:45:51.565Z,10.40
2023-03-16T09:48:21.700Z,10.50
2023-03-16T09:50:50.302Z,10.50
2023-03-16T09:53:23.431Z,10.50
2023-03-16T09:55:58.412Z,10.60
2023-03-16T09:58:27.171Z,10.50
2023-03-16T10:01:12.149Z,10.70
2023-03-16T10:04:00.310Z,10.60
2023-03-16T10:06:28.959Z,10.70
2023-03-16T10:09:21.263Z,10.70
2023-03-16T10:11:54.170Z,10.70
2023-03-16T10:14:28.061Z,10.60
2023-03-16T10:17:17.844Z,10.70
2023-03-16T10:20:17.431Z,10.70
2023-03-16T10:22:48.005Z,10.70
2023-03-16T10:25:40.879Z,10.80
2023-03-16T10:28:15.823Z,10.80
2023-03-16T10:30:44.207Z,10.90
2023-03-16T10:33:27.033Z,10.80
2023-03-16T10:36:15.537Z,11.00
2023-03-16T10:38:50.823Z,11.10
2023-03-16T10:41:18.412Z,11.10
2023-03-16T10:43:51.856Z,11.00
2023-03-16T10:49:00.466Z,11.10
2023-03-16T10:51:31.322Z,11.20
2023-03-16T10:54:40.030Z,11.20
2023-03-16T10:57:25.540Z,11.40
2023-03-16T10:59:56.796Z,11.50
2023-03-16T11:02:32.600Z,12.00
2023-03-16T11:07:29.113Z,12.20
2023-03-16T11:15:20.156Z,11.90
2023-03-16T11:20:26.489Z,11.60
2023-03-16T11:22:54.520Z,11.60
2023-03-16T11:25:30.547Z,11.50
2023-03-16T11:28:17.002Z,11.50
2023-03-16T11:30:54.357Z,11.50
2023-03-16T11:36:29.929Z,11.70
2023-03-16T11:39:14.142Z,11.80
2023-03-16T11:47:06.197Z,12.30
2023-03-16T11:50:00.365Z,12.50
2023-03-16T11:52:46.793Z,12.50
2023-03-16T11:55:27.219Z,12.50
2023-03-16T11:58:19.059Z,12.70
2023-03-16T12:01:04.387Z,12.60
2023-03-16T12:03:41.187Z,12.60
2023-03-16T12:06:39.106Z,12.50
2023-03-16T12:09:25.082Z,12.30
2023-03-16T12:11:52.671Z,12.30
2023-03-16T12:14:39.616Z,12.30
2023-03-16T12:17:22.452Z,12.20
2023-03-16T12:19:56.416Z,12.20
2023-03-16T12:22:38.197Z,12.20
2023-03-16T12:25:13.123Z,12.20
2023-03-16T12:27:41.356Z,12.30
2023-03-16T12:30:46.472Z,12.10
2023-03-16T12:33:50.221Z,12.00
2023-03-16T12:39:07.486Z,12.10
2023-03-16T12:41:52.905Z,12.20
2023-03-16T12:44:44.589Z,12.20
2023-03-16T12:48:06.433Z,12.20
2023-03-16T12:50:34.501Z,12.20
2023-03-16T12:53:02.058Z,12.20
2023-03-16T12:55:39.171Z,12.20
2023-03-16T12:58:08.694Z,12.10
2023-03-16T13:00:42.686Z,12.10
2023-03-16T13:03:21.360Z,12.20
2023-03-16T13:06:00.826Z,12.10
2023-03-16T13:08:40.465Z,12.10
2023-03-16T13:11:12.237Z,12.10
2023-03-16T13:14:08.372Z,11.90
2023-03-16T13:16:37.972Z,12.00
2023-03-16T13:19:26.385Z,12.00
2023-03-16T13:22:04.149Z,11.90
2023-03-16T13:24:40.112Z,11.90
2023-03-16T13:27:20.214Z,12.00
2023-03-16T13:32:27.337Z,11.90
2023-03-16T13:34:59.178Z,11.80
2023-03-16T13:37:29.427Z,11.70
2023-03-16T13:40:02.295Z,11.80
2023-03-16T13:42:32.567Z,11.80
2023-03-16T13:45:13.154Z,11.90
2023-03-16T13:47:44.169Z,11.70
2023-03-16T13:50:13.911Z,11.80
2023-03-16T13:55:22.931Z,11.80
2023-03-16T13:57:50.641Z,11.80
2023-03-16T14:00:22.435Z,11.80
2023-03-16T14:02:56.302Z,11.70
2023-03-16T14:05:30.383Z,11.80
2023-03-16T14:08:00.645Z,11.90
2023-03-16T14:10:33.518Z,11.80
2023-03-16T14:13:10.325Z,11.80
2023-03-16T14:15:38.765Z,11.80
2023-03-16T14:18:22.572Z,11.80
2023-03-16T14:20:54.902Z,11.70
2023-03-16T14:23:29.609Z,11.70
2023-03-16T14:25:57.476Z,11.70
2023-03-16T14:28:33.379Z,11.60
2023-03-16T14:31:11.884Z,11.60
2023-03-16T14:33:42.879Z,11.60
2023-03-16T14:36:19.716Z,11.30
2023-03-16T14:38:48.861Z,11.50
2023-03-16T14:41:25.896Z,11.40
2023-03-16T14:44:01.831Z,11.40
2023-03-16T14:46:43.007Z,11.30
2023-03-16T14:49:31.248Z,11.20
2023-03-16T14:52:11.781Z,11.20
2023-03-16T14:57:07.384Z,11.20
2023-03-16T14:59:35.041Z,11.20
2023-03-16T15:02:06.933Z,11.20
2023-03-16T15:04:36.470Z,11.40
2023-03-16T15:07:20.659Z,11.20
2023-03-16T15:09:49.581Z,11.20
2023-03-16T15:12:19.637Z,11.10
2023-03-16T15:15:06.922Z,11.00
2023-03-16T15:22:33.784Z,11.10
2023-03-16T15:25:24.797Z,11.00
2023-03-16T15:27:54.131Z,10.90
2023-03-16T15:30:24.810Z,11.00
2023-03-16T15:32:53.183Z,10.80
2023-03-16T15:35:21.297Z,11.00
2023-03-16T15:37:49.375Z,11.00
2023-03-16T15:40:21.616Z,10.90
2023-03-16T15:42:49.801Z,10.90
2023-03-16T15:45:20.698Z,11.00
2023-03-16T15:47:50.187Z,10.90
2023-03-16T15:50:20.589Z,10.70
2023-03-16T15:53:20.508Z,10.70
2023-03-16T15:56:03.005Z,10.50
2023-03-16T15:58:32.571Z,10.40
2023-03-16T16:01:01.850Z,10.40
2023-03-16T16:05:57.546Z,10.40
2023-03-16T16:08:25.246Z,10.30
2023-03-16T16:10:53.638Z,10.20
2023-03-16T16:13:37.604Z,10.20
2023-03-16T16:16:17.798Z,10.30
2023-03-16T16:18:46.686Z,10.10
2023-03-16T16:21:19.615Z,10.10
2023-03-16T16:23:47.966Z,10.00
2023-03-16T16:26:54.936Z,10.10
2023-03-16T16:29:25.685Z,10.20
2023-03-16T16:34:24.655Z,10.10
2023-03-16T16:36:54.342Z,10.10
2023-03-16T16:41:55.075Z,10.00
2023-03-16T16:44:25.639Z,10.10
2023-03-16T16:46:54.101Z,10.10
2023-03-16T16:51:52.807Z,10.00
2023-03-16T16:54:30.121Z,10.00
2023-03-16T16:56:59.699Z,10.10
2023-03-16T16:59:33.335Z,10.00
2023-03-16T17:02:03.296Z,9.90
2023-03-16T17:04:30.944Z,10.00
2023-03-16T17:07:01.953Z,10.00
2023-03-16T17:09:30.321Z,9.90
2023-03-16T17:12:01.067Z,9.90
2023-03-16T17:14:31.048Z,9.80
2023-03-16T17:17:05.157Z,9.90
2023-03-16T17:19:33.035Z,9.80
2023-03-16T17:22:01.492Z,9.90
2023-03-16T17:27:01.339Z,9.80
2023-03-16T17:32:08.947Z,9.90
2023-03-16T17:34:38.049Z,9.80
2023-03-16T17:37:12.992Z,9.80
2023-03-16T17:39:41.835Z,9.80
2023-03-16T17:42:16.664Z,9.90
2023-03-16T17:44:47.613Z,9.90
2023-03-16T17:47:39.767Z,9.90
2023-03-16T17:50:29.529Z,10.00
2023-03-16T17:55:25.378Z,10.00
2023-03-16T17:57:55.352Z,9.90
2023-03-16T18:00:36.718Z,10.00
2023-03-16T18:03:11.806Z,10.00
2023-03-16T18:08:33.412Z,9.90
2023-03-16T18:11:04.276Z,10.00
2023-03-16T18:13:36.955Z,9.80
2023-03-16T18:16:06.380Z,10.00
2023-03-16T18:18:38.414Z,9.90
2023-03-16T18:23:35.731Z,10.00
2023-03-16T18:26:04.083Z,10.00
2023-03-16T18:31:01.515Z,10.30
2023-03-16T18:33:41.116Z,10.10
2023-03-16T18:38:53.806Z,10.10
2023-03-16T18:43:59.741Z,10.10
2023-03-16T18:46:33.331Z,9.90
2023-03-16T18:49:16.780Z,10.10
2023-03-16T18:51:48.283Z,10.10
2023-03-16T18:56:49.666Z,10.10
2023-03-16T18:59:17.390Z,10.10
2023-03-16T19:01:46.984Z,10.10
2023-03-16T19:04:22.164Z,10.10
2023-03-16T19:06:52.113Z,10.10
2023-03-16T19:16:46.664Z,10.00
2023-03-16T19:19:15.510Z,10.00
2023-03-16T19:24:33.708Z,10.10
2023-03-16T19:27:02.041Z,10.20
2023-03-16T19:29:33.192Z,10.00
2023-03-16T19:32:01.790Z,10.10
2023-03-16T19:36:57.413Z,10.10
2023-03-16T19:39:25.847Z,10.00
2023-03-16T19:41:58.953Z,10.10
2023-03-16T19:44:28.560Z,10.00
2023-03-16T19:46:56.553Z,10.10
2023-03-16T19:49:27.064Z,10.40
2023-03-16T19:51:55.820Z,10.20
2023-03-16T19:54:27.819Z,10.00
2023-03-16T19:56:58.009Z,10.10
2023-03-16T19:59:31.149Z,10.10
2023-03-16T20:01:59.124Z,10.20
2023-03-16T20:04:27.770Z,10.20
2023-03-16T20:09:23.445Z,10.10
2023-03-16T20:11:51.272Z,10.20
2023-03-16T20:14:24.004Z,10.10
2023-03-16T20:19:22.336Z,10.20
2023-03-16T20:21:52.269Z,10.10
2023-03-16T20:24:24.556Z,10.00
2023-03-16T20:26:54.124Z,10.00
2023-03-16T20:29:31.179Z,10.10
2023-03-16T20:31:59.881Z,10.10
2023-03-16T20:34:31.465Z,10.10
2023-03-16T20:37:00.596Z,10.20
2023-03-16T20:39:28.315Z,10.20
2023-03-16T20:41:57.244Z,10.10
2023-03-16T20:46:54.416Z,10.20
2023-03-16T20:51:50.876Z,10.20
2023-03-16T20:54:18.589Z,10.10
2023-03-16T20:56:46.914Z,10.20
2023-03-16T20:59:21.880Z,10.00
2023-03-16T21:04:22.468Z,10.20
2023-03-16T21:06:51.395Z,10.10
2023-03-16T21:09:21.206Z,10.10
2023-03-16T21:11:49.554Z,10.00
2023-03-16T21:14:21.534Z,10.00
2023-03-16T21:16:50.234Z,10.10
2023-03-16T21:19:21.111Z,10.10
2023-03-16T21:21:48.891Z,10.10
2023-03-16T21:24:16.917Z,10.10
2023-03-16T21:26:47.489Z,10.00
2023-03-16T21:29:21.210Z,10.10
2023-03-16T21:31:49.577Z,10.20
2023-03-16T21:34:28.291Z,10.20
2023-03-16T21:41:53.712Z,9.50
2023-03-16T21:44:21.505Z,10.20
2023-03-16T21:46:49.626Z,10.10
2023-03-16T21:49:18.044Z,10.20
2023-03-16T21:54:15.303Z,10.20
2023-03-16T21:56:44.089Z,10.20
2023-03-16T22:01:54.251Z,10.20
2023-03-16T22:04:28.302Z,10.30
2023-03-16T22:11:52.605Z,10.00
2023-03-16T22:14:20.338Z,10.10
2023-03-16T22:21:47.157Z,10.20
2023-03-16T22:24:24.828Z,10.10
2023-03-16T22:26:53.642Z,10.00
2023-03-16T22:29:33.708Z,9.90
2023-03-16T22:32:08.564Z,9.90
2023-03-16T22:34:46.301Z,9.80
2023-03-16T22:37:20.255Z,9.70
2023-03-16T22:39:48.703Z,9.80
2023-03-16T22:47:29.326Z,9.70
2023-03-16T22:49:56.961Z,9.70
2023-03-16T22:52:29.781Z,9.80
2023-03-16T22:55:00.171Z,9.90
2023-03-16T22:57:29.652Z,9.80
2023-03-16T22:59:58.850Z,9.80
2023-03-16T23:02:27.819Z,10.10
2023-03-16T23:12:21.820Z,10.00
2023-03-16T23:17:19.741Z,10.10
2023-03-16T23:19:50.700Z,10.10
2023-03-16T23:22:18.346Z,10.30
2023-03-16T23:27:19.190Z,10.00
2023-03-16T23:29:46.989Z,10.20
2023-03-16T23:37:12.851Z,10.10
2023-03-16T23:39:40.672Z,10.00
2023-03-16T23:42:09.235Z,10.10
2023-03-16T23:44:37.208Z,10.10
2023-03-16T23:47:04.893Z,10.10
2023-03-16T23:49:36.966Z,10.40
2023-03-16T23:52:05.417Z,10.10
2023-03-16T23:54:33.381Z,10.10
2023-03-16T23:57:01.155Z,10.20
2023-03-16T23:59:28.759Z,10.10
